Time;durP1;ratioP1;P1;durP2;ratioP2;P2;SDS_P1;SDS_P2;PMS_P1;PMS_P2;Temp;Humidity;BMP_temperature;BMP_pressure;BME280_temperature;BME280_humidity;BME280_pressure;Samples;Min_cycle;Max_cycle;Signal;HPM_P1;HPM_P2
2022/09/03 00:01:06;;;;;;;;;;;11.50;99.90;;;;;;5012018;28;19917;-71
2022/09/03 00:03:36;;;;;;;;;;;11.60;99.90;;;;;;5011394;28;20351;-69
2022/09/03 00:06:09;;;;;;;;;;;11.60;99.90;;;;;;5011870;28;19975;-69
2022/09/03 00:08:39;;;;;;;;;;;11.70;99.90;;;;;;5011430;28;19962;-70
2022/09/03 00:11:12;;;;;;;;;;;11.70;99.90;;;;;;5011606;28;19931;-70
2022/09/03 00:13:46;;;;;;;;;;;11.80;99.90;;;;;;5011279;28;19909;-70
2022/09/03 00:16:16;;;;;;;;;;;11.80;99.90;;;;;;5011364;28;20264;-70
2022/09/03 00:18:45;;;;;;;;;;;12.00;99.90;;;;;;5014863;28;19914;-70
2022/09/03 00:21:15;;;;;;;;;;;12.10;99.90;;;;;;5016830;28;19910;-70
2022/09/03 00:23:43;;;;;;;;;;;12.20;99.90;;;;;;5010170;28;19910;-69
2022/09/03 00:26:13;;;;;;;;;;;12.30;99.90;;;;;;5010577;28;19918;-69
2022/09/03 00:29:00;;;;;;;;;;;12.30;99.90;;;;;;5010803;28;19968;-70
2022/09/03 00:31:26;;;;;;;;;;;12.40;99.90;;;;;;5011819;28;19970;-71
2022/09/03 00:34:00;;;;;;;;;;;12.50;99.90;;;;;;5009630;28;19932;-70
2022/09/03 00:36:52;;;;;;;;;;;12.50;99.90;;;;;;5009914;28;20008;-70
2022/09/03 00:39:20;;;;;;;;;;;12.30;99.90;;;;;;5008080;28;19910;-69
2022/09/03 00:41:53;;;;;;;;;;;12.20;99.90;;;;;;5010336;28;19996;-70
2022/09/03 00:44:23;;;;;;;;;;;12.20;99.90;;;;;;5010046;28;20295;-70
2022/09/03 00:46:49;;;;;;;;;;;12.20;99.90;;;;;;5010295;28;19913;-72
2022/09/03 00:49:16;;;;;;;;;;;12.20;99.90;;;;;;5009559;28;19910;-71
2022/09/03 00:52:03;;;;;;;;;;;12.20;99.90;;;;;;5010082;28;20383;-70
2022/09/03 00:54:38;;;;;;;;;;;12.20;99.90;;;;;;5009887;28;20332;-70
2022/09/03 00:57:13;;;;;;;;;;;12.20;99.90;;;;;;5010045;28;19917;-70
2022/09/03 00:59:59;;;;;;;;;;;12.50;99.90;;;;;;5009846;28;19909;-69
2022/09/03 01:02:45;;;;;;;;;;;12.70;99.90;;;;;;5009899;28;19919;-69
2022/09/03 01:05:18;;;;;;;;;;;12.80;99.90;;;;;;5009680;28;20009;-69
2022/09/03 01:08:00;;;;;;;;;;;12.80;99.90;;;;;;5009753;28;19909;-70
2022/09/03 01:10:47;;;;;;;;;;;12.80;99.90;;;;;;5009675;28;19948;-69
2022/09/03 01:13:40;;;;;;;;;;;13.00;99.90;;;;;;4989084;28;19909;-68
2022/09/03 01:16:10;;;;;;;;;;;12.90;99.90;;;;;;5008052;28;20324;-67
2022/09/03 01:18:43;;;;;;;;;;;12.90;99.90;;;;;;5009214;28;19921;-68
2022/09/03 01:21:27;;;;;;;;;;;13.00;99.90;;;;;;5009721;28;19910;-69
2022/09/03 01:24:06;;;;;;;;;;;13.10;99.90;;;;;;5009451;28;20368;-68
2022/09/03 01:26:32;;;;;;;;;;;13.40;99.90;;;;;;5009660;28;19965;-69
2022/09/03 01:29:09;;;;;;;;;;;13.60;99.90;;;;;;5010040;28;19916;-68
2022/09/03 01:31:56;;;;;;;;;;;13.80;99.90;;;;;;5009428;28;20009;-69
2022/09/03 01:34:34;;;;;;;;;;;13.90;99.90;;;;;;5009410;28;19910;-69
2022/09/03 01:37:13;;;;;;;;;;;14.00;99.90;;;;;;5009555;28;19917;-70
2022/09/03 01:40:00;;;;;;;;;;;14.10;99.90;;;;;;5009511;28;20348;-70
2022/09/03 01:42:33;;;;;;;;;;;14.10;99.90;;;;;;5009441;28;19916;-70
2022/09/03 01:45:07;;;;;;;;;;;14.10;99.90;;;;;;5009357;28;19913;-69
2022/09/03 01:47:48;;;;;;;;;;;14.20;99.90;;;;;;5008816;28;19967;-69
2022/09/03 01:50:19;;;;;;;;;;;14.20;99.90;;;;;;5011506;28;19910;-69
2022/09/03 01:52:58;;;;;;;;;;;14.20;99.90;;;;;;5012887;28;19936;-69
2022/09/03 01:55:34;;;;;;;;;;;14.30;99.90;;;;;;5013191;28;19962;-69
2022/09/03 01:58:05;;;;;;;;;;;14.30;99.90;;;;;;5012600;28;19914;-68
2022/09/03 02:00:32;;;;;;;;;;;14.40;99.90;;;;;;5012747;28;20299;-70
2022/09/03 02:03:04;;;;;;;;;;;14.40;99.90;;;;;;5012160;28;19910;-67
2022/09/03 02:05:31;;;;;;;;;;;14.30;99.90;;;;;;5012676;28;20347;-68
2022/09/03 02:07:59;;;;;;;;;;;14.30;99.90;;;;;;5012525;28;20352;-67
2022/09/03 02:10:31;;;;;;;;;;;14.30;99.90;;;;;;5012532;28;20478;-67
2022/09/03 02:13:00;;;;;;;;;;;14.30;99.90;;;;;;5012788;28;19918;-68
2022/09/03 02:15:29;;;;;;;;;;;14.30;99.90;;;;;;5012861;28;19941;-68
2022/09/03 02:17:59;;;;;;;;;;;14.30;99.90;;;;;;5011881;28;19909;-68
2022/09/03 02:20:27;;;;;;;;;;;14.30;99.90;;;;;;5012422;28;19916;-69
2022/09/03 02:22:55;;;;;;;;;;;14.30;99.90;;;;;;5012124;28;20245;-67
2022/09/03 02:25:25;;;;;;;;;;;14.40;99.90;;;;;;5012216;28;19917;-67
2022/09/03 02:27:52;;;;;;;;;;;14.50;99.90;;;;;;5012191;28;20004;-68
2022/09/03 02:30:19;;;;;;;;;;;14.60;99.90;;;;;;5012073;28;19916;-68
2022/09/03 02:32:46;;;;;;;;;;;14.70;99.90;;;;;;5011347;28;19917;-68
2022/09/03 02:35:13;;;;;;;;;;;14.90;99.90;;;;;;5011828;28;19913;-68
2022/09/03 02:37:40;;;;;;;;;;;15.10;99.90;;;;;;5011648;28;20429;-68
2022/09/03 02:40:09;;;;;;;;;;;15.10;99.90;;;;;;5012091;28;19959;-67
2022/09/03 02:42:36;;;;;;;;;;;14.80;99.90;;;;;;5012062;28;20070;-68
2022/09/03 02:45:22;;;;;;;;;;;14.40;99.90;;;;;;5012057;28;19921;-67
2022/09/03 02:47:51;;;;;;;;;;;14.00;99.90;;;;;;5010971;28;19984;-67
2022/09/03 02:50:18;;;;;;;;;;;13.90;99.90;;;;;;5011973;28;19924;-67
2022/09/03 02:52:45;;;;;;;;;;;13.70;99.90;;;;;;5011941;28;19910;-67
2022/09/03 02:55:11;;;;;;;;;;;13.80;99.90;;;;;;5011951;28;20311;-67
2022/09/03 02:57:38;;;;;;;;;;;13.80;99.90;;;;;;5011717;28;19910;-68
2022/09/03 03:00:05;;;;;;;;;;;13.90;99.90;;;;;;5011263;28;20348;-67
2022/09/03 03:02:32;;;;;;;;;;;14.10;99.90;;;;;;5010875;28;20375;-66
2022/09/03 03:04:58;;;;;;;;;;;14.20;99.90;;;;;;5011938;28;20349;-67
2022/09/03 03:07:25;;;;;;;;;;;14.30;99.90;;;;;;5011614;28;19909;-67
2022/09/03 03:09:52;;;;;;;;;;;14.40;99.90;;;;;;5011388;28;20325;-66
2022/09/03 03:12:19;;;;;;;;;;;14.40;99.90;;;;;;5011628;28;20287;-67
2022/09/03 03:14:45;;;;;;;;;;;14.50;99.90;;;;;;5011501;28;19924;-66
2022/09/03 03:17:12;;;;;;;;;;;14.60;99.90;;;;;;5010826;28;19910;-67
2022/09/03 03:19:39;;;;;;;;;;;14.50;99.90;;;;;;5010291;28;19909;-67
2022/09/03 03:22:06;;;;;;;;;;;14.60;99.90;;;;;;5011258;28;19917;-68
2022/09/03 03:24:32;;;;;;;;;;;14.50;99.90;;;;;;5011413;28;19917;-67
2022/09/03 03:26:59;;;;;;;;;;;14.50;99.90;;;;;;5042512;28;20280;-68
2022/09/03 03:29:26;;;;;;;;;;;14.50;99.90;;;;;;5011495;28;19916;-67
2022/09/03 03:31:53;;;;;;;;;;;14.50;99.90;;;;;;5010573;28;19966;-66
2022/09/03 03:34:21;;;;;;;;;;;14.60;99.90;;;;;;5011238;28;19910;-67
2022/09/03 03:36:47;;;;;;;;;;;14.50;99.90;;;;;;5016570;28;19939;-67
2022/09/03 03:39:14;;;;;;;;;;;14.50;99.90;;;;;;5021662;28;19920;-68
2022/09/03 03:41:41;;;;;;;;;;;14.60;99.90;;;;;;5011382;28;19954;-66
2022/09/03 03:44:08;;;;;;;;;;;14.60;99.90;;;;;;5011204;28;19938;-67
2022/09/03 03:46:36;;;;;;;;;;;14.70;99.90;;;;;;5010992;28;19917;-66
2022/09/03 03:49:05;;;;;;;;;;;14.70;99.90;;;;;;5011179;28;19920;-67
2022/09/03 03:51:32;;;;;;;;;;;14.80;99.90;;;;;;5010813;28;20081;-68
2022/09/03 03:53:59;;;;;;;;;;;14.80;99.90;;;;;;5010901;28;19954;-68
2022/09/03 03:56:26;;;;;;;;;;;14.80;99.90;;;;;;5011171;28;20012;-68
2022/09/03 03:58:53;;;;;;;;;;;14.90;99.90;;;;;;5018979;28;20244;-68
2022/09/03 04:01:21;;;;;;;;;;;14.80;99.90;;;;;;5031313;28;20013;-67
2022/09/03 04:03:48;;;;;;;;;;;14.80;99.90;;;;;;5031015;28;20008;-67
2022/09/03 04:06:16;;;;;;;;;;;14.80;99.90;;;;;;5031107;28;20012;-67
2022/09/03 04:08:44;;;;;;;;;;;14.70;99.90;;;;;;5031267;28;20014;-67
2022/09/03 04:11:12;;;;;;;;;;;14.50;99.90;;;;;;5030932;28;19917;-68
2022/09/03 04:13:39;;;;;;;;;;;14.10;99.90;;;;;;5030257;28;20343;-68
2022/09/03 04:16:16;;;;;;;;;;;13.40;99.90;;;;;;5031073;28;19909;-68
2022/09/03 04:18:48;;;;;;;;;;;12.90;99.90;;;;;;5030298;28;20253;-68
2022/09/03 04:21:16;;;;;;;;;;;12.50;99.90;;;;;;5030794;28;20352;-68
2022/09/03 04:23:44;;;;;;;;;;;12.30;99.90;;;;;;5023848;28;19914;-67
2022/09/03 04:26:11;;;;;;;;;;;12.20;99.90;;;;;;5023108;28;19917;-68
2022/09/03 04:28:39;;;;;;;;;;;12.20;99.90;;;;;;5031044;28;19909;-69
2022/09/03 04:31:07;;;;;;;;;;;12.20;99.90;;;;;;5030952;28;19916;-69
2022/09/03 04:33:34;;;;;;;;;;;12.20;99.90;;;;;;5030968;28;20360;-68
2022/09/03 04:36:04;;;;;;;;;;;12.30;99.90;;;;;;5030834;28;19910;-68
2022/09/03 04:38:31;;;;;;;;;;;12.30;99.90;;;;;;5030763;28;19913;-68
2022/09/03 04:41:01;;;;;;;;;;;12.30;99.90;;;;;;5030642;28;19932;-68
2022/09/03 04:43:28;;;;;;;;;;;12.30;99.90;;;;;;5029402;28;19914;-68
2022/09/03 04:45:58;;;;;;;;;;;12.20;99.90;;;;;;5020440;28;19917;-67
2022/09/03 04:48:25;;;;;;;;;;;12.10;99.90;;;;;;5027506;28;19932;-68
2022/09/03 04:50:53;;;;;;;;;;;12.00;99.90;;;;;;5030354;28;19954;-68
2022/09/03 04:53:21;;;;;;;;;;;12.20;99.90;;;;;;5030454;28;19910;-68
2022/09/03 04:55:48;;;;;;;;;;;12.10;99.90;;;;;;5062070;27;19961;-68
2022/09/03 04:58:15;;;;;;;;;;;12.10;99.90;;;;;;5030641;28;19949;-68
2022/09/03 05:00:41;;;;;;;;;;;12.10;99.90;;;;;;5030382;28;19909;-69
2022/09/03 05:03:08;;;;;;;;;;;12.10;99.90;;;;;;5062381;28;20351;-69
2022/09/03 05:05:35;;;;;;;;;;;12.20;99.90;;;;;;5030332;28;19918;-68
2022/09/03 05:08:01;;;;;;;;;;;12.10;99.90;;;;;;5030273;28;19948;-69
2022/09/03 05:10:29;;;;;;;;;;;12.30;99.90;;;;;;5030107;28;19921;-68
2022/09/03 05:13:00;;;;;;;;;;;12.50;99.90;;;;;;5030280;28;19921;-68
2022/09/03 05:15:27;;;;;;;;;;;12.60;99.90;;;;;;5030190;28;19971;-68
2022/09/03 05:18:03;;;;;;;;;;;12.50;99.90;;;;;;5030085;28;19952;-68
2022/09/03 05:20:31;;;;;;;;;;;12.50;99.90;;;;;;5030159;28;19916;-69
2022/09/03 05:23:02;;;;;;;;;;;12.50;99.90;;;;;;5030516;28;19913;-69
2022/09/03 05:25:31;;;;;;;;;;;12.50;99.90;;;;;;5033598;28;19961;-70
2022/09/03 05:27:58;;;;;;;;;;;12.50;99.90;;;;;;5033333;28;19919;-68
2022/09/03 05:30:25;;;;;;;;;;;12.60;99.90;;;;;;5033931;28;19910;-68
2022/09/03 05:32:52;;;;;;;;;;;12.60;99.90;;;;;;5034213;28;19964;-69
2022/09/03 05:35:19;;;;;;;;;;;12.70;99.90;;;;;;5033648;28;19910;-69
2022/09/03 05:37:46;;;;;;;;;;;12.80;99.90;;;;;;5032072;28;19913;-69
2022/09/03 05:40:13;;;;;;;;;;;12.90;99.90;;;;;;5065738;28;19909;-69
2022/09/03 05:42:40;;;;;;;;;;;12.90;99.90;;;;;;5033555;28;19956;-68
2022/09/03 05:45:09;;;;;;;;;;;13.00;99.90;;;;;;5033515;28;20314;-68
2022/09/03 05:47:39;;;;;;;;;;;13.10;99.90;;;;;;5033208;28;19909;-68
2022/09/03 05:50:07;;;;;;;;;;;13.20;99.90;;;;;;5033417;28;19940;-68
2022/09/03 05:52:35;;;;;;;;;;;13.40;99.90;;;;;;5033295;28;19909;-68
2022/09/03 05:55:02;;;;;;;;;;;13.60;99.90;;;;;;5026295;28;19909;-68
2022/09/03 05:57:29;;;;;;;;;;;13.80;99.90;;;;;;5052420;27;19959;-69
2022/09/03 05:59:56;;;;;;;;;;;13.80;99.90;;;;;;5020235;28;20339;-69
2022/09/03 06:02:23;;;;;;;;;;;13.90;99.90;;;;;;5023390;28;19913;-68
2022/09/03 06:04:50;;;;;;;;;;;13.90;99.90;;;;;;5027744;28;20355;-69
2022/09/03 06:07:16;;;;;;;;;;;14.00;99.90;;;;;;5032987;28;19913;-68
2022/09/03 06:09:43;;;;;;;;;;;14.00;99.90;;;;;;5025463;28;20383;-67
2022/09/03 06:12:10;;;;;;;;;;;14.00;99.90;;;;;;5033102;28;19913;-69
2022/09/03 06:14:36;;;;;;;;;;;14.10;99.90;;;;;;5032942;28;19996;-68
2022/09/03 06:17:03;;;;;;;;;;;14.10;99.90;;;;;;5026012;28;20350;-68
2022/09/03 06:19:30;;;;;;;;;;;14.10;99.90;;;;;;5025766;28;19936;-68
2022/09/03 06:21:57;;;;;;;;;;;14.10;99.90;;;;;;5026526;28;20383;-68
2022/09/03 06:24:25;;;;;;;;;;;14.10;99.90;;;;;;5018073;28;19913;-69
2022/09/03 06:26:52;;;;;;;;;;;14.10;99.90;;;;;;5015545;28;20486;-67
2022/09/03 06:29:19;;;;;;;;;;;14.20;99.90;;;;;;5031466;28;20306;-68
2022/09/03 06:31:47;;;;;;;;;;;14.20;99.90;;;;;;5032596;28;19909;-69
2022/09/03 06:34:17;;;;;;;;;;;14.20;99.90;;;;;;5032429;28;19909;-68
2022/09/03 06:36:45;;;;;;;;;;;14.20;99.90;;;;;;5031265;28;19909;-69
2022/09/03 06:39:11;;;;;;;;;;;14.20;99.90;;;;;;5032516;28;20295;-68
2022/09/03 06:41:42;;;;;;;;;;;14.20;99.90;;;;;;5032292;28;19916;-69
2022/09/03 06:44:12;;;;;;;;;;;14.20;99.90;;;;;;5064355;28;19909;-68
2022/09/03 06:46:41;;;;;;;;;;;14.20;99.90;;;;;;5032233;28;20012;-68
2022/09/03 06:49:08;;;;;;;;;;;14.20;99.90;;;;;;5032395;28;19909;-68
2022/09/03 06:51:36;;;;;;;;;;;14.20;99.90;;;;;;5031445;28;19916;-68
2022/09/03 06:54:05;;;;;;;;;;;14.20;99.90;;;;;;5032362;28;19913;-68
2022/09/03 06:56:32;;;;;;;;;;;14.10;99.90;;;;;;5032433;28;19916;-68
2022/09/03 06:59:00;;;;;;;;;;;14.10;99.90;;;;;;5031955;28;19909;-68
2022/09/03 07:01:29;;;;;;;;;;;14.10;99.90;;;;;;5032348;28;19992;-68
2022/09/03 07:03:58;;;;;;;;;;;14.10;99.90;;;;;;5031896;28;19944;-67
2022/09/03 07:06:28;;;;;;;;;;;14.00;99.90;;;;;;5032027;28;19923;-68
2022/09/03 07:08:56;;;;;;;;;;;14.10;99.90;;;;;;5031835;28;20421;-68
2022/09/03 07:11:25;;;;;;;;;;;14.10;99.90;;;;;;5032108;28;19909;-67
2022/09/03 07:13:54;;;;;;;;;;;14.00;99.90;;;;;;5031959;28;19909;-68
2022/09/03 07:16:26;;;;;;;;;;;13.70;99.90;;;;;;5032075;28;19909;-67
2022/09/03 07:18:52;;;;;;;;;;;13.30;99.90;;;;;;5031970;28;20004;-67
2022/09/03 07:21:20;;;;;;;;;;;13.10;99.90;;;;;;5030716;28;19909;-67
2022/09/03 07:23:48;;;;;;;;;;;13.10;99.90;;;;;;5031872;28;20120;-67
2022/09/03 07:26:19;;;;;;;;;;;13.00;99.90;;;;;;5031653;28;19968;-66
2022/09/03 07:28:46;;;;;;;;;;;13.00;99.90;;;;;;5031842;28;20000;-67
2022/09/03 07:31:14;;;;;;;;;;;13.00;99.90;;;;;;5031685;28;19910;-68
2022/09/03 07:33:41;;;;;;;;;;;13.10;99.90;;;;;;5031304;28;20343;-67
2022/09/03 07:36:11;;;;;;;;;;;13.20;99.90;;;;;;5031468;28;19917;-68
2022/09/03 07:38:37;;;;;;;;;;;13.20;99.90;;;;;;5031395;28;19913;-68
2022/09/03 07:41:05;;;;;;;;;;;13.30;99.90;;;;;;5031660;28;19909;-67
2022/09/03 07:43:42;;;;;;;;;;;13.30;99.90;;;;;;5031663;28;19910;-67
2022/09/03 07:46:13;;;;;;;;;;;13.40;99.90;;;;;;5031540;28;19968;-67
2022/09/03 07:48:40;;;;;;;;;;;13.40;99.90;;;;;;5029743;28;19913;-67
2022/09/03 07:51:07;;;;;;;;;;;13.50;99.90;;;;;;5029426;28;19917;-67
2022/09/03 07:53:34;;;;;;;;;;;13.50;99.90;;;;;;5029417;28;19918;-67
2022/09/03 07:56:05;;;;;;;;;;;13.60;99.90;;;;;;5029218;28;19913;-68
2022/09/03 07:58:32;;;;;;;;;;;13.70;99.90;;;;;;5029241;28;19909;-68
2022/09/03 08:01:03;;;;;;;;;;;13.70;99.90;;;;;;5028883;28;19970;-68
2022/09/03 08:03:31;;;;;;;;;;;13.60;99.90;;;;;;5029271;28;20020;-66
2022/09/03 08:06:02;;;;;;;;;;;13.60;99.90;;;;;;5028726;28;19929;-67
2022/09/03 08:08:28;;;;;;;;;;;13.70;99.90;;;;;;5028854;28;20288;-67
2022/09/03 08:10:57;;;;;;;;;;;13.70;99.90;;;;;;5029003;28;20402;-67
2022/09/03 08:13:30;;;;;;;;;;;13.70;99.90;;;;;;5029172;28;20355;-67
2022/09/03 08:15:58;;;;;;;;;;;13.70;99.90;;;;;;5028433;28;19909;-67
2022/09/03 08:18:26;;;;;;;;;;;13.70;99.90;;;;;;5029172;28;19912;-68
2022/09/03 08:20:52;;;;;;;;;;;13.70;99.90;;;;;;5028878;28;20024;-67
2022/09/03 08:23:19;;;;;;;;;;;13.70;99.90;;;;;;5028938;28;19917;-67
2022/09/03 08:25:46;;;;;;;;;;;13.70;99.90;;;;;;5028602;28;20364;-68
2022/09/03 08:28:12;;;;;;;;;;;13.80;99.90;;;;;;5028588;28;19916;-68
2022/09/03 08:30:39;;;;;;;;;;;13.80;99.90;;;;;;5028820;28;19909;-68
2022/09/03 08:33:07;;;;;;;;;;;13.80;99.90;;;;;;5028852;28;19909;-67
2022/09/03 08:35:36;;;;;;;;;;;13.70;99.90;;;;;;5028695;28;19948;-66
2022/09/03 08:38:05;;;;;;;;;;;13.60;99.90;;;;;;5028848;28;19913;-69
2022/09/03 08:40:34;;;;;;;;;;;13.50;99.90;;;;;;5028507;28;19948;-68
2022/09/03 08:43:17;;;;;;;;;;;13.40;99.90;;;;;;5028973;28;20352;-67
2022/09/03 08:45:44;;;;;;;;;;;13.30;99.90;;;;;;5028532;28;19966;-67
2022/09/03 08:48:17;;;;;;;;;;;13.30;99.90;;;;;;5028835;28;20008;-68
2022/09/03 08:50:48;;;;;;;;;;;13.20;99.90;;;;;;5028583;28;20023;-68
2022/09/03 08:53:19;;;;;;;;;;;13.20;99.90;;;;;;5028360;28;19932;-67
2022/09/03 08:55:45;;;;;;;;;;;13.10;99.90;;;;;;5028355;28;19931;-69
2022/09/03 08:58:14;;;;;;;;;;;13.20;99.90;;;;;;5027889;28;19913;-68
2022/09/03 09:01:00;;;;;;;;;;;13.20;99.90;;;;;;5028528;28;20379;-68
2022/09/03 09:03:30;;;;;;;;;;;13.30;99.90;;;;;;5028127;28;20396;-68
2022/09/03 09:06:14;;;;;;;;;;;13.30;99.90;;;;;;5029974;28;20391;-68
2022/09/03 09:08:59;;;;;;;;;;;13.40;99.90;;;;;;5030286;28;19986;-70
2022/09/03 09:12:01;;;;;;;;;;;13.50;99.90;;;;;;5030343;28;20327;-70
2022/09/03 09:14:34;;;;;;;;;;;13.60;99.90;;;;;;4969475;28;19949;-69
2022/09/03 09:17:19;;;;;;;;;;;13.60;99.90;;;;;;5020601;28;20041;-68
2022/09/03 09:20:02;;;;;;;;;;;13.70;99.90;;;;;;5029800;28;20352;-68
2022/09/03 09:22:32;;;;;;;;;;;13.70;99.90;;;;;;5030341;28;19953;-69
2022/09/03 09:25:01;;;;;;;;;;;13.20;99.90;;;;;;5030058;28;20382;-69
2022/09/03 09:27:28;;;;;;;;;;;12.80;99.90;;;;;;5030300;28;19965;-69
2022/09/03 09:30:00;;;;;;;;;;;12.50;99.90;;;;;;5029994;28;19927;-69
2022/09/03 09:32:27;;;;;;;;;;;12.20;99.90;;;;;;5030330;28;19916;-69
2022/09/03 09:34:54;;;;;;;;;;;12.10;99.90;;;;;;5029974;28;19917;-69
2022/09/03 09:37:20;;;;;;;;;;;12.00;99.90;;;;;;5030359;28;19909;-67
2022/09/03 09:39:55;;;;;;;;;;;11.80;99.90;;;;;;5029927;28;19991;-68
2022/09/03 09:42:22;;;;;;;;;;;11.70;99.90;;;;;;5030030;28;19916;-69
2022/09/03 09:44:49;;;;;;;;;;;11.70;99.90;;;;;;5029872;28;20275;-67
2022/09/03 09:47:21;;;;;;;;;;;11.60;99.90;;;;;;5030253;28;19914;-68
2022/09/03 09:49:48;;;;;;;;;;;11.60;99.90;;;;;;5061641;28;20284;-67
2022/09/03 09:52:15;;;;;;;;;;;11.50;99.90;;;;;;5030085;28;19916;-68
2022/09/03 09:54:45;;;;;;;;;;;11.50;99.90;;;;;;5030093;28;20351;-69
2022/09/03 09:57:18;;;;;;;;;;;11.60;99.90;;;;;;5029980;28;19932;-69
2022/09/03 09:59:45;;;;;;;;;;;11.70;99.90;;;;;;5029814;28;19996;-69
2022/09/03 10:02:26;;;;;;;;;;;11.70;99.90;;;;;;5029767;28;19909;-69
2022/09/03 10:04:54;;;;;;;;;;;11.80;99.90;;;;;;5029621;28;19923;-69
2022/09/03 10:07:23;;;;;;;;;;;11.90;99.90;;;;;;5029711;28;19936;-69
2022/09/03 10:09:59;;;;;;;;;;;11.90;99.90;;;;;;5029486;28;19944;-69
2022/09/03 10:12:36;;;;;;;;;;;12.00;99.90;;;;;;5033160;28;19917;-69
2022/09/03 10:15:16;;;;;;;;;;;12.10;99.90;;;;;;5033272;28;19996;-68
2022/09/03 10:17:48;;;;;;;;;;;12.20;99.90;;;;;;5032824;28;20301;-68
2022/09/03 10:20:29;;;;;;;;;;;12.10;99.90;;;;;;5064885;28;19910;-69
2022/09/03 10:22:59;;;;;;;;;;;12.10;99.90;;;;;;5033077;28;19909;-69
2022/09/03 10:25:41;;;;;;;;;;;12.10;99.90;;;;;;5032697;28;19917;-69
2022/09/03 10:28:09;;;;;;;;;;;12.20;99.90;;;;;;5032969;28;20001;-69
2022/09/03 10:30:47;;;;;;;;;;;12.40;99.90;;;;;;5032666;28;20004;-69
2022/09/03 10:33:19;;;;;;;;;;;12.40;99.90;;;;;;5032776;28;19954;-69
2022/09/03 10:35:51;;;;;;;;;;;12.60;99.90;;;;;;5032432;28;19909;-69
2022/09/03 10:38:24;;;;;;;;;;;12.70;99.90;;;;;;5032807;28;20352;-68
2022/09/03 10:41:09;;;;;;;;;;;12.90;99.90;;;;;;5032543;28;19957;-68
2022/09/03 10:43:38;;;;;;;;;;;12.90;99.90;;;;;;5032449;28;19916;-67
2022/09/03 10:46:15;;;;;;;;;;;13.10;99.90;;;;;;5032527;28;19918;-68
2022/09/03 10:48:42;;;;;;;;;;;13.10;99.90;;;;;;5032491;28;19964;-68
2022/09/03 10:51:16;;;;;;;;;;;13.20;99.90;;;;;;5032326;28;19994;-68
2022/09/03 10:53:48;;;;;;;;;;;13.20;99.90;;;;;;5032317;28;19910;-68
2022/09/03 10:56:16;;;;;;;;;;;13.30;99.90;;;;;;5032516;28;20313;-68
2022/09/03 10:58:42;;;;;;;;;;;13.30;99.90;;;;;;5032522;28;20004;-68
2022/09/03 11:01:09;;;;;;;;;;;13.30;99.90;;;;;;5032474;28;19909;-67
2022/09/03 11:03:40;;;;;;;;;;;13.30;99.90;;;;;;5032177;28;19910;-68
2022/09/03 11:06:24;;;;;;;;;;;13.30;99.90;;;;;;5032098;28;20451;-68
2022/09/03 11:08:54;;;;;;;;;;;13.30;99.90;;;;;;5032055;28;19913;-67
2022/09/03 11:11:26;;;;;;;;;;;13.30;99.90;;;;;;5032266;28;19916;-69
2022/09/03 11:13:58;;;;;;;;;;;13.40;99.90;;;;;;5032121;28;19995;-67
2022/09/03 11:16:37;;;;;;;;;;;13.30;99.90;;;;;;5032230;28;19910;-68
2022/09/03 11:19:05;;;;;;;;;;;13.30;99.90;;;;;;5031996;28;20346;-68
2022/09/03 11:21:32;;;;;;;;;;;13.40;99.90;;;;;;5031565;28;19932;-69
2022/09/03 11:24:06;;;;;;;;;;;13.40;99.90;;;;;;5031817;28;19909;-68
2022/09/03 11:26:34;;;;;;;;;;;13.40;99.90;;;;;;5031952;28;19917;-68
2022/09/03 11:29:04;;;;;;;;;;;13.40;99.90;;;;;;5032021;28;19909;-67
2022/09/03 11:31:37;;;;;;;;;;;13.40;99.90;;;;;;5063880;28;19909;-67
2022/09/03 11:34:12;;;;;;;;;;;13.50;99.90;;;;;;5031809;28;20325;-67
2022/09/03 11:36:40;;;;;;;;;;;13.50;99.90;;;;;;5031889;28;19909;-68
2022/09/03 11:39:19;;;;;;;;;;;13.50;99.90;;;;;;5031844;28;19909;-67
2022/09/03 11:41:56;;;;;;;;;;;13.40;99.90;;;;;;5031705;28;19909;-67
2022/09/03 11:44:23;;;;;;;;;;;13.40;99.90;;;;;;5031843;28;20283;-67
2022/09/03 11:46:54;;;;;;;;;;;13.40;99.90;;;;;;5031752;28;19917;-69
2022/09/03 11:49:29;;;;;;;;;;;13.50;99.90;;;;;;5031480;28;19916;-68
2022/09/03 11:52:00;;;;;;;;;;;13.50;99.90;;;;;;5031577;28;19917;-68
2022/09/03 11:54:28;;;;;;;;;;;13.50;99.90;;;;;;5031483;28;19917;-68
2022/09/03 11:57:10;;;;;;;;;;;13.50;99.90;;;;;;5031584;28;19909;-68
2022/09/03 11:59:38;;;;;;;;;;;13.60;99.90;;;;;;5031388;28;19913;-68
2022/09/03 12:02:14;;;;;;;;;;;13.60;99.90;;;;;;5031545;28;19916;-68
2022/09/03 12:04:41;;;;;;;;;;;13.60;99.90;;;;;;5031375;28;19932;-68
2022/09/03 12:07:33;;;;;;;;;;;13.60;99.90;;;;;;5031539;28;20000;-68
2022/09/03 12:10:00;;;;;;;;;;;13.70;99.90;;;;;;5031007;28;19927;-67
2022/09/03 12:12:45;;;;;;;;;;;13.70;99.90;;;;;;5031434;28;19909;-67
2022/09/03 12:15:13;;;;;;;;;;;13.70;99.90;;;;;;5031227;28;19915;-67
2022/09/03 12:17:42;;;;;;;;;;;13.70;99.90;;;;;;5030986;28;19913;-67
2022/09/03 12:20:13;;;;;;;;;;;13.70;99.90;;;;;;5031100;28;19976;-67
2022/09/03 12:22:40;;;;;;;;;;;13.70;99.90;;;;;;5031201;28;19913;-67
2022/09/03 12:25:11;;;;;;;;;;;13.60;99.90;;;;;;5031088;28;19960;-67
2022/09/03 12:27:39;;;;;;;;;;;13.60;99.90;;;;;;5030951;28;20012;-68
2022/09/03 12:30:14;;;;;;;;;;;13.50;99.90;;;;;;5030185;28;19917;-68
2022/09/03 12:32:42;;;;;;;;;;;13.50;99.90;;;;;;5011177;28;19910;-67
2022/09/03 12:35:11;;;;;;;;;;;13.50;99.90;;;;;;5011027;28;19914;-68
2022/09/03 12:37:39;;;;;;;;;;;13.50;99.90;;;;;;5010302;28;19917;-68
2022/09/03 12:40:15;;;;;;;;;;;13.50;99.90;;;;;;5011361;28;19910;-68
2022/09/03 12:42:42;;;;;;;;;;;13.50;99.90;;;;;;5011021;28;19909;-69
2022/09/03 12:45:14;;;;;;;;;;;13.60;99.90;;;;;;5010882;28;19921;-68
2022/09/03 12:47:42;;;;;;;;;;;13.50;99.90;;;;;;5010747;28;19918;-67
2022/09/03 12:50:09;;;;;;;;;;;13.50;99.90;;;;;;5011098;28;20283;-68
2022/09/03 12:52:37;;;;;;;;;;;13.60;99.90;;;;;;5010442;28;19951;-68
2022/09/03 12:55:24;;;;;;;;;;;13.60;99.90;;;;;;5010907;28;20022;-67
2022/09/03 12:58:01;;;;;;;;;;;13.60;99.90;;;;;;5009646;28;20283;-69
2022/09/03 13:00:28;;;;;;;;;;;13.70;99.90;;;;;;5010761;28;19914;-68
2022/09/03 13:02:55;;;;;;;;;;;13.70;99.90;;;;;;5010965;28;19914;-69
2022/09/03 13:05:30;;;;;;;;;;;13.70;99.90;;;;;;5010522;28;19972;-68
2022/09/03 13:08:02;;;;;;;;;;;13.70;99.90;;;;;;5010992;28;19913;-68
2022/09/03 13:10:31;;;;;;;;;;;13.70;99.90;;;;;;5010881;28;19955;-69
2022/09/03 13:13:01;;;;;;;;;;;13.70;99.90;;;;;;5011056;28;20379;-68
2022/09/03 13:15:28;;;;;;;;;;;13.70;99.90;;;;;;5011510;28;19910;-68
2022/09/03 13:18:13;;;;;;;;;;;13.70;99.90;;;;;;5011008;28;19920;-68
2022/09/03 13:20:43;;;;;;;;;;;13.80;99.90;;;;;;5012024;28;20014;-67
2022/09/03 13:23:37;;;;;;;;;;;13.70;99.90;;;;;;5012055;28;19909;-67
2022/09/03 13:26:10;;;;;;;;;;;13.40;99.90;;;;;;5011052;28;19967;-67
2022/09/03 13:29:07;;;;;;;;;;;13.00;99.90;;;;;;5010951;28;20012;-68
2022/09/03 13:31:37;;;;;;;;;;;12.70;99.90;;;;;;5010647;28;19955;-69
2022/09/03 13:34:27;;;;;;;;;;;12.50;99.90;;;;;;5010545;28;20324;-69
2022/09/03 13:37:12;;;;;;;;;;;12.50;99.90;;;;;;5005417;28;19909;-69
2022/09/03 13:39:46;;;;;;;;;;;12.40;99.90;;;;;;5041977;28;19920;-69
2022/09/03 13:42:22;;;;;;;;;;;12.30;99.90;;;;;;5010569;28;19916;-71
2022/09/03 13:45:11;;;;;;;;;;;12.30;99.90;;;;;;5011932;28;20321;-72
2022/09/03 13:50:48;;;;;;;;;;;12.10;99.90;;;;;;5014121;28;19916;-70
2022/09/03 13:53:21;;;;;;;;;;;12.00;99.90;;;;;;5013851;28;19917;-70
2022/09/03 13:55:51;;;;;;;;;;;11.80;99.90;;;;;;5013562;28;19913;-71
2022/09/03 13:58:29;;;;;;;;;;;11.80;99.90;;;;;;5013785;28;19920;-71
2022/09/03 14:01:02;;;;;;;;;;;11.80;99.90;;;;;;5013676;28;19910;-69
2022/09/03 14:03:32;;;;;;;;;;;11.90;99.90;;;;;;5013607;28;19909;-68
2022/09/03 14:06:16;;;;;;;;;;;12.00;99.90;;;;;;5013508;28;19918;-71
2022/09/03 14:09:01;;;;;;;;;;;12.00;99.90;;;;;;5013500;28;19921;-71
2022/09/03 14:11:50;;;;;;;;;;;11.90;99.90;;;;;;5013512;28;19922;-71
2022/09/03 14:14:36;;;;;;;;;;;11.80;99.90;;;;;;4994207;28;20008;-70
2022/09/03 14:17:11;;;;;;;;;;;11.80;99.90;;;;;;5045272;28;19913;-69
2022/09/03 14:19:56;;;;;;;;;;;11.90;99.90;;;;;;5013176;28;19910;-72
2022/09/03 14:22:25;;;;;;;;;;;11.90;99.90;;;;;;5013498;28;19917;-72
2022/09/03 14:25:00;;;;;;;;;;;12.00;99.90;;;;;;5013277;28;19910;-73
2022/09/03 14:27:28;;;;;;;;;;;11.90;99.90;;;;;;5013337;28;19913;-73
2022/09/03 14:30:01;;;;;;;;;;;12.00;99.90;;;;;;5013136;28;19918;-70
2022/09/03 14:32:28;;;;;;;;;;;12.00;99.90;;;;;;5013272;28;20355;-69
2022/09/03 14:34:57;;;;;;;;;;;12.10;99.90;;;;;;5013118;28;19952;-70
2022/09/03 14:37:36;;;;;;;;;;;12.10;99.90;;;;;;5013222;28;19921;-68
2022/09/03 14:40:17;;;;;;;;;;;12.00;99.90;;;;;;5013202;28;19920;-72
2022/09/03 14:43:10;;;;;;;;;;;12.00;99.90;;;;;;5013032;28;19910;-71